createdAt,value
2023-05-14T00:05:22.861Z,9.7087
2023-05-14T00:06:23.772Z,9.7681
2023-05-14T00:07:24.662Z,9.7887
2023-05-14T00:08:25.549Z,9.7346
2023-05-14T00:09:26.401Z,9.6896
2023-05-14T00:10:27.265Z,9.6685
2023-05-14T00:11:28.127Z,9.6782
2023-05-14T00:12:29.037Z,9.6733
2023-05-14T00:13:29.927Z,9.6733
2023-05-14T00:14:30.764Z,9.7485
2023-05-14T00:15:33.622Z,9.6860
2023-05-14T00:16:32.436Z,9.6279
2023-05-14T00:17:34.390Z,9.6212
2023-05-14T00:18:36.221Z,9.6349
2023-05-14T00:19:41.105Z,9.5945
2023-05-14T00:21:41.372Z,9.6920
2023-05-14T00:22:43.924Z,9.6188
2023-05-14T00:23:44.799Z,9.5841
2023-05-14T00:24:46.294Z,9.6203
2023-05-14T00:25:47.973Z,9.6193
2023-05-14T00:26:48.871Z,9.5907
2023-05-14T00:27:50.371Z,9.4443
2023-05-14T00:28:51.905Z,9.4208
2023-05-14T00:29:53.236Z,9.3166
2023-05-14T00:30:54.750Z,9.2131
2023-05-14T00:31:55.664Z,9.1889
2023-05-14T00:32:56.581Z,9.1113
2023-05-14T00:33:58.075Z,9.0475
2023-05-14T00:34:59.562Z,9.0052
2023-05-14T00:36:00.441Z,8.8994
2023-05-14T00:37:01.364Z,8.7935
2023-05-14T00:38:02.602Z,8.7124
2023-05-14T00:39:03.484Z,8.6718
2023-05-14T00:40:04.625Z,8.4812
2023-05-14T00:41:05.555Z,8.4789
2023-05-14T00:42:06.488Z,8.4686
2023-05-14T00:43:07.346Z,8.5021
2023-05-14T00:44:08.244Z,8.4698
2023-05-14T00:45:09.087Z,8.3890
2023-05-14T00:46:10.225Z,8.5326
2023-05-14T00:47:11.109Z,8.5824
2023-05-14T00:48:11.962Z,8.6698
2023-05-14T00:49:12.827Z,8.6285
2023-05-14T00:50:13.709Z,8.5837
2023-05-14T00:51:14.581Z,8.6852
2023-05-14T00:52:16.066Z,8.6695
2023-05-14T00:53:17.572Z,8.6805
2023-05-14T00:54:18.455Z,8.8304
2023-05-14T00:55:20.803Z,8.5885
2023-05-14T00:56:22.417Z,8.5866
2023-05-14T00:57:23.306Z,8.6726
2023-05-14T00:58:24.168Z,8.7111
2023-05-14T01:00:26.144Z,8.6994
2023-05-14T01:01:27.133Z,8.6606
2023-05-14T01:02:28.090Z,8.6348
2023-05-14T01:03:30.080Z,8.6070
2023-05-14T01:04:31.035Z,8.5903
2023-05-14T01:05:31.924Z,8.5236
2023-05-14T01:06:33.754Z,8.5012
2023-05-14T01:07:34.650Z,8.4797
2023-05-14T01:08:36.162Z,8.4759
2023-05-14T01:09:37.053Z,8.5069
2023-05-14T01:10:37.967Z,8.5273
2023-05-14T01:11:39.429Z,8.5096
2023-05-14T01:12:40.331Z,8.5383
2023-05-14T01:13:41.245Z,8.5706
2023-05-14T01:14:42.181Z,8.5885
2023-05-14T01:15:43.387Z,8.5941
2023-05-14T01:16:44.292Z,8.6136
2023-05-14T01:17:46.021Z,8.5953
2023-05-14T01:18:47.678Z,8.6267
2023-05-14T01:19:48.597Z,8.6384
2023-05-14T01:20:50.137Z,8.7071
2023-05-14T01:21:51.108Z,8.6587
2023-05-14T01:22:51.992Z,8.6732
2023-05-14T01:23:52.930Z,8.7096
2023-05-14T01:24:54.904Z,8.6927
2023-05-14T01:25:55.844Z,8.6777
2023-05-14T01:26:57.316Z,8.7012
2023-05-14T01:27:58.841Z,8.6966
2023-05-14T01:29:00.499Z,8.7579
2023-05-14T01:30:01.396Z,8.7523
2023-05-14T01:31:03.160Z,8.7702
2023-05-14T01:32:04.896Z,8.8009
2023-05-14T01:33:06.006Z,8.8959
2023-05-14T01:34:07.831Z,8.8668
2023-05-14T01:35:09.395Z,8.8458
2023-05-14T01:36:10.293Z,8.8759
2023-05-14T01:37:11.217Z,8.9338
2023-05-14T01:38:12.152Z,8.9782
2023-05-14T01:39:13.100Z,8.9008
2023-05-14T01:41:14.809Z,8.9185
2023-05-14T01:42:15.759Z,8.9693
2023-05-14T01:43:16.720Z,8.9689
2023-05-14T01:44:17.675Z,8.9762
2023-05-14T01:45:18.609Z,9.0478
2023-05-14T01:46:19.785Z,9.0503
2023-05-14T01:47:20.762Z,9.0506
2023-05-14T01:48:21.744Z,9.0664
2023-05-14T01:49:22.706Z,9.0829
2023-05-14T01:50:23.740Z,9.0838
2023-05-14T01:51:24.725Z,9.0342
2023-05-14T01:52:25.630Z,9.0913
2023-05-14T01:53:26.549Z,9.1015
2023-05-14T01:54:27.457Z,9.0724
2023-05-14T01:55:28.553Z,9.0969
2023-05-14T01:56:29.536Z,9.0865
2023-05-14T01:57:30.428Z,9.0912
2023-05-14T01:59:32.096Z,9.1215
2023-05-14T02:00:33.027Z,9.1011
2023-05-14T02:01:34.449Z,9.0946
2023-05-14T02:02:35.452Z,9.1520
2023-05-14T02:03:36.416Z,9.1325
2023-05-14T02:04:37.354Z,9.1604
2023-05-14T02:05:38.278Z,9.2237
2023-05-14T02:06:39.204Z,9.1054
2023-05-14T02:07:40.121Z,9.1924
2023-05-14T02:08:41.109Z,9.2669
2023-05-14T02:09:42.012Z,9.3142
2023-05-14T02:10:42.972Z,9.2934
2023-05-14T02:11:43.923Z,9.2226
2023-05-14T02:12:45.009Z,9.1616
2023-05-14T02:13:45.906Z,9.0669
2023-05-14T02:14:46.861Z,9.0243
2023-05-14T02:15:47.819Z,9.0416
2023-05-14T02:16:48.743Z,9.0206
2023-05-14T02:17:49.697Z,8.9765
2023-05-14T02:18:50.704Z,8.9867
2023-05-14T02:19:51.672Z,8.9587
2023-05-14T02:20:52.615Z,8.9616
2023-05-14T02:21:53.537Z,8.9096
2023-05-14T02:22:54.497Z,8.8638
2023-05-14T02:23:55.432Z,8.8533
2023-05-14T02:24:56.362Z,8.7837
2023-05-14T02:25:57.486Z,8.8122
2023-05-14T02:27:00.196Z,8.7738
2023-05-14T02:28:01.081Z,8.8285
2023-05-14T02:29:02.249Z,8.8483
2023-05-14T02:30:03.137Z,8.8763
2023-05-14T02:31:04.096Z,8.8061
2023-05-14T02:32:05.772Z,8.8065
2023-05-14T02:33:07.456Z,8.8234
2023-05-14T02:34:09.029Z,8.7593
2023-05-14T02:35:10.327Z,8.8125
2023-05-14T02:36:11.870Z,8.8317
2023-05-14T02:37:13.412Z,8.8687
2023-05-14T02:39:15.789Z,8.9193
2023-05-14T02:40:16.720Z,8.9643
2023-05-14T02:41:18.323Z,8.9485
2023-05-14T02:42:19.323Z,8.9382
2023-05-14T02:43:20.282Z,8.9394
2023-05-14T02:52:27.987Z,8.6277
2023-05-14T02:53:28.933Z,8.6594
2023-05-14T02:54:29.860Z,8.4552
2023-05-14T02:55:30.829Z,8.3674
2023-05-14T02:56:31.764Z,8.4071
2023-05-14T02:58:34.808Z,8.4482
2023-05-14T02:59:35.956Z,8.4813
2023-05-14T03:00:37.126Z,8.5250
2023-05-14T03:01:38.658Z,8.5573
2023-05-14T03:07:43.740Z,8.7186
2023-05-14T03:08:44.654Z,8.7732
2023-05-14T03:12:49.137Z,8.4937
2023-05-14T03:13:50.076Z,8.4529
2023-05-14T03:14:51.123Z,8.4081
2023-05-14T03:15:52.643Z,8.4000
2023-05-14T03:16:53.798Z,8.3946
2023-05-14T03:17:54.763Z,8.4110
2023-05-14T03:18:55.952Z,8.4433
2023-05-14T03:19:56.867Z,8.5265
2023-05-14T03:21:59.511Z,8.6202
2023-05-14T03:23:00.453Z,8.5643
2023-05-14T03:24:01.372Z,8.4141
2023-05-14T03:25:03.401Z,8.2898
2023-05-14T03:26:04.541Z,8.1579
2023-05-14T03:27:05.482Z,8.0894
2023-05-14T03:28:06.467Z,8.0134
2023-05-14T03:29:07.405Z,7.9385
2023-05-14T03:30:08.379Z,7.9545
2023-05-14T03:31:09.351Z,7.9553
2023-05-14T03:32:10.266Z,7.9103
2023-05-14T03:33:11.175Z,7.8737
2023-05-14T03:34:12.159Z,7.8361
2023-05-14T03:35:13.082Z,7.8524
2023-05-14T03:36:14.036Z,7.8358
2023-05-14T03:37:14.936Z,7.9164
2023-05-14T03:38:15.922Z,7.9295
2023-05-14T03:39:16.839Z,8.0016
2023-05-14T03:40:17.782Z,7.9334
2023-05-14T03:42:19.540Z,8.0587
2023-05-14T03:43:20.532Z,8.0423
2023-05-14T03:44:21.464Z,7.8630
2023-05-14T03:45:22.415Z,7.6407
2023-05-14T03:46:23.598Z,7.4975
2023-05-14T03:47:24.500Z,7.4124
2023-05-14T03:48:25.560Z,7.3674
2023-05-14T03:49:26.610Z,7.3763
2023-05-14T03:50:27.619Z,7.3570
2023-05-14T03:51:28.554Z,7.3734
2023-05-14T03:52:29.761Z,7.3874
2023-05-14T03:53:30.717Z,7.4226
2023-05-14T03:54:32.881Z,7.4430
2023-05-14T03:55:34.452Z,7.4707
2023-05-14T03:56:36.070Z,7.5134
2023-05-14T03:57:37.037Z,7.5686
2023-05-14T03:58:38.567Z,7.5999
2023-05-14T03:59:40.135Z,7.6066
2023-05-14T04:00:41.086Z,7.6361
2023-05-14T04:01:43.403Z,7.6626
2023-05-14T04:02:44.785Z,7.6932
2023-05-14T04:03:46.182Z,7.7234
2023-05-14T04:05:48.110Z,7.8056
2023-05-14T04:06:49.021Z,7.8463
2023-05-14T04:09:51.815Z,7.9348
2023-05-14T04:13:55.688Z,8.1442
2023-05-14T04:14:56.655Z,8.1543
2023-05-14T04:15:57.641Z,8.2049
2023-05-14T04:17:00.104Z,8.2503
2023-05-14T04:18:01.236Z,8.3101
2023-05-14T04:19:02.271Z,8.3535
2023-05-14T04:20:03.982Z,8.4019
2023-05-14T04:22:06.691Z,8.4690
2023-05-14T04:23:08.212Z,8.5046
2023-05-14T04:25:10.623Z,8.5224
2023-05-14T04:26:11.556Z,8.5683
2023-05-14T04:27:12.560Z,8.6230
2023-05-14T04:28:14.733Z,8.6758
2023-05-14T04:29:16.283Z,8.7063
2023-05-14T04:30:17.828Z,8.7407
2023-05-14T04:31:18.853Z,8.7395
2023-05-14T04:32:20.458Z,8.7472
2023-05-14T04:33:22.049Z,8.7643
2023-05-14T04:34:22.963Z,8.7978
2023-05-14T04:35:25.258Z,8.8524
2023-05-14T04:36:26.896Z,8.8861
2023-05-14T04:37:27.850Z,8.9153
2023-05-14T04:38:29.432Z,8.9433
2023-05-14T04:39:30.333Z,8.9740
2023-05-14T04:40:31.220Z,8.9957
2023-05-14T04:41:32.932Z,9.0309
2023-05-14T04:42:34.480Z,9.0595
2023-05-14T04:43:35.977Z,9.1919
2023-05-14T04:44:36.884Z,9.2378
2023-05-14T04:45:38.430Z,9.2644
2023-05-14T04:46:39.407Z,9.2555
2023-05-14T04:47:40.389Z,9.2840
2023-05-14T04:48:41.669Z,9.2700
2023-05-14T04:49:43.182Z,9.2844
2023-05-14T04:50:45.227Z,9.3043
2023-05-14T04:51:46.157Z,9.3283
2023-05-14T04:52:47.101Z,9.3201
2023-05-14T04:53:48.005Z,9.3585
2023-05-14T04:54:48.967Z,9.3990
2023-05-14T04:55:49.886Z,9.4437
2023-05-14T04:56:50.812Z,9.5397
2023-05-14T04:57:51.728Z,9.7204
2023-05-14T04:58:52.663Z,9.9053
2023-05-14T04:59:53.575Z,9.9842
2023-05-14T05:00:54.512Z,10.0211
2023-05-14T05:01:55.454Z,10.0070
2023-05-14T05:02:56.405Z,10.0117
2023-05-14T05:03:57.315Z,10.0351
2023-05-14T05:04:58.260Z,10.1101
2023-05-14T05:05:59.200Z,10.1849
2023-05-14T05:07:00.130Z,10.2541
2023-05-14T05:08:01.046Z,10.2183
2023-05-14T05:09:02.239Z,10.1921
2023-05-14T05:10:03.328Z,10.2238
2023-05-14T05:11:04.914Z,10.2876
2023-05-14T05:12:06.642Z,10.3063
2023-05-14T05:13:08.211Z,10.3375
2023-05-14T05:14:09.225Z,10.3404
2023-05-14T05:15:10.831Z,10.3611
2023-05-14T05:16:12.409Z,10.3282
2023-05-14T05:17:14.430Z,10.3647
2023-05-14T05:18:15.894Z,10.2637
2023-05-14T05:19:16.992Z,10.1204
2023-05-14T05:20:18.520Z,10.2401
2023-05-14T05:21:20.335Z,10.3133
2023-05-14T05:22:21.240Z,10.3652
2023-05-14T05:23:22.131Z,10.4486
2023-05-14T05:24:23.075Z,10.4641
2023-05-14T05:25:24.009Z,10.5016
2023-05-14T05:26:24.928Z,10.5459
2023-05-14T05:27:25.845Z,10.5889
2023-05-14T05:28:26.834Z,10.5961
2023-05-14T05:29:27.729Z,10.5033
2023-05-14T05:30:28.676Z,10.5318
2023-05-14T05:31:30.780Z,10.5627
2023-05-14T05:32:31.792Z,10.5421
2023-05-14T05:33:33.329Z,10.6095
2023-05-14T05:34:34.979Z,10.6288
2023-05-14T05:36:37.331Z,10.6374
2023-05-14T05:37:38.891Z,10.7402
2023-05-14T05:38:39.793Z,10.8761
2023-05-14T05:39:40.757Z,10.9482
2023-05-14T05:40:42.246Z,10.9246
2023-05-14T05:41:43.167Z,10.8970
2023-05-14T05:42:44.115Z,10.8776
2023-05-14T05:43:45.656Z,10.9923
2023-05-14T05:44:47.193Z,10.9658
2023-05-14T05:45:48.147Z,10.9720
2023-05-14T05:47:49.856Z,10.8882
2023-05-14T05:48:50.764Z,10.9319
2023-05-14T05:50:53.333Z,11.0259
2023-05-14T05:51:54.244Z,11.0503
2023-05-14T05:52:55.160Z,11.0375
2023-05-14T05:54:57.309Z,11.1041
2023-05-14T05:55:58.230Z,11.1654
2023-05-14T05:56:59.107Z,11.2308
2023-05-14T05:59:01.789Z,11.4697
2023-05-14T06:00:03.973Z,11.5007
2023-05-14T06:01:04.873Z,11.5007
2023-05-14T06:02:05.808Z,11.5812
2023-05-14T06:03:06.746Z,11.6410
2023-05-14T06:04:07.666Z,11.6934
2023-05-14T06:05:08.595Z,11.6606
2023-05-14T06:06:09.547Z,11.6056
2023-05-14T06:07:10.587Z,11.6049
2023-05-14T06:08:11.740Z,11.4560
2023-05-14T06:09:12.661Z,11.2570
2023-05-14T06:10:13.600Z,11.1618
2023-05-14T06:11:15.107Z,11.1289
2023-05-14T06:12:16.637Z,11.2114
2023-05-14T06:13:18.530Z,11.2329
2023-05-14T06:14:19.444Z,11.1021
2023-05-14T06:16:21.282Z,11.0339
2023-05-14T06:17:22.294Z,11.0763
2023-05-14T06:19:24.604Z,11.1898
2023-05-14T06:20:26.146Z,11.0374
2023-05-14T06:21:27.169Z,11.0969
2023-05-14T06:22:28.684Z,11.1707
2023-05-14T06:23:30.236Z,11.0703
2023-05-14T06:24:31.816Z,10.9248
2023-05-14T06:25:33.813Z,10.9965
2023-05-14T06:26:34.694Z,10.9561
2023-05-14T06:27:36.250Z,10.9935
2023-05-14T06:28:37.703Z,10.9433
2023-05-14T06:29:38.590Z,10.8143
2023-05-14T06:30:39.481Z,10.8640
2023-05-14T06:31:41.104Z,10.7903
2023-05-14T06:32:42.672Z,10.8015
2023-05-14T06:33:43.575Z,10.8892
2023-05-14T06:34:45.142Z,10.9417
2023-05-14T06:35:46.673Z,11.0489
2023-05-14T06:36:47.596Z,11.0296
2023-05-14T06:37:48.477Z,11.0956
2023-05-14T06:38:50.238Z,11.1477
2023-05-14T06:39:51.158Z,11.2181
2023-05-14T06:40:52.118Z,11.1744
2023-05-14T06:41:53.745Z,11.1753
2023-05-14T06:42:54.700Z,11.2706
2023-05-14T06:43:54.997Z,11.3734
2023-05-14T06:45:01.527Z,11.4335
2023-05-14T06:46:02.527Z,11.4377
2023-05-14T06:51:06.807Z,11.4031
2023-05-14T06:52:24.528Z,11.4332
2023-05-14T06:53:08.921Z,11.3877
2023-05-14T06:54:09.890Z,11.4439
2023-05-14T06:55:10.818Z,11.4805
2023-05-14T06:56:12.060Z,11.5187
2023-05-14T06:57:13.718Z,11.4741
2023-05-14T06:58:14.666Z,11.4907
2023-05-14T06:59:16.214Z,11.4529
2023-05-14T07:00:17.827Z,11.4460
2023-05-14T07:01:19.857Z,11.6194
2023-05-14T07:03:22.276Z,11.8215
2023-05-14T07:04:23.269Z,11.8039
2023-05-14T07:05:24.228Z,11.9590
2023-05-14T07:07:25.954Z,12.0293
2023-05-14T07:08:26.893Z,11.9748
2023-05-14T07:10:28.883Z,12.0384
2023-05-14T07:11:29.778Z,12.0314
2023-05-14T07:12:30.740Z,12.0912
2023-05-14T07:14:32.507Z,12.0452
2023-05-14T07:15:33.437Z,11.8067
2023-05-14T07:16:34.393Z,11.7051
2023-05-14T07:17:35.450Z,11.7807
2023-05-14T07:18:36.409Z,11.8617
2023-05-14T07:19:37.373Z,11.8076
2023-05-14T07:20:38.344Z,11.7898
2023-05-14T07:21:39.310Z,11.7372
2023-05-14T07:22:40.319Z,11.9134
2023-05-14T07:23:41.282Z,12.0367
2023-05-14T07:24:42.247Z,12.0918
2023-05-14T07:25:43.210Z,12.1387
2023-05-14T07:26:44.190Z,12.1927
2023-05-14T07:27:45.164Z,12.3763
2023-05-14T07:28:46.093Z,12.4683
2023-05-14T07:29:47.015Z,12.6533
2023-05-14T07:30:47.915Z,12.8576
2023-05-14T07:31:49.023Z,13.0034
2023-05-14T07:32:50.012Z,12.9615
2023-05-14T07:33:50.925Z,13.2629
2023-05-14T07:34:51.852Z,13.5330
2023-05-14T07:35:52.791Z,13.7697
2023-05-14T07:36:54.342Z,13.8839
2023-05-14T07:37:55.870Z,13.8235
2023-05-14T07:38:57.117Z,13.9277
2023-05-14T07:39:58.642Z,13.7716
2023-05-14T07:40:59.547Z,13.7280
2023-05-14T07:43:01.952Z,13.3261
2023-05-14T07:44:02.846Z,13.3948
2023-05-14T07:45:03.778Z,13.2563
2023-05-14T07:46:05.228Z,13.5551
2023-05-14T07:47:06.162Z,13.8913
2023-05-14T07:48:07.218Z,14.1782
2023-05-14T07:49:08.426Z,14.2842
2023-05-14T07:50:09.922Z,14.6385
2023-05-14T07:51:10.858Z,14.9158
2023-05-14T07:52:23.275Z,15.1406
2023-05-14T07:56:16.961Z,16.4759
2023-05-14T07:57:17.869Z,16.7964
2023-05-14T07:58:19.419Z,16.4173
2023-05-14T07:59:20.967Z,16.2393
2023-05-14T08:00:22.054Z,16.2526
2023-05-14T08:01:23.784Z,16.2829
2023-05-14T08:02:24.768Z,15.8283
2023-05-14T08:03:42.947Z,15.5689
2023-05-14T08:04:44.487Z,15.3764
2023-05-14T08:05:45.436Z,15.5873
2023-05-14T08:06:46.290Z,15.7252
2023-05-14T08:07:47.806Z,15.7937
2023-05-14T08:08:48.730Z,15.9396
2023-05-14T08:09:50.175Z,15.6591
2023-05-14T08:10:51.152Z,15.7586
2023-05-14T08:11:52.415Z,15.9689
2023-05-14T08:12:53.512Z,16.1153
2023-05-14T08:13:54.392Z,16.1835
2023-05-14T08:14:55.300Z,16.0213
2023-05-14T08:15:56.868Z,16.0549
2023-05-14T08:16:57.798Z,16.2451
2023-05-14T08:17:58.833Z,15.9393
2023-05-14T08:19:00.354Z,15.5812
2023-05-14T08:20:01.829Z,15.5845
2023-05-14T08:21:03.654Z,15.7041
2023-05-14T08:22:05.227Z,16.1385
2023-05-14T08:23:06.151Z,16.0202
2023-05-14T08:24:07.741Z,16.2888
2023-05-14T08:25:09.201Z,16.3898
2023-05-14T08:26:10.206Z,16.5187
2023-05-14T08:27:11.790Z,16.5794
2023-05-14T08:28:35.593Z,16.2084
2023-05-14T08:29:16.126Z,15.5791
2023-05-14T08:30:14.697Z,15.4295
2023-05-14T08:31:15.641Z,15.1573
2023-05-14T08:32:23.347Z,15.2036
2023-05-14T08:34:21.002Z,15.0272
2023-05-14T08:35:28.820Z,15.1615
2023-05-14T08:38:26.449Z,15.0771
2023-05-14T08:39:27.349Z,15.1803
2023-05-14T08:40:28.213Z,15.1441
2023-05-14T08:41:29.123Z,15.2617
2023-05-14T08:42:30.590Z,15.4481
2023-05-14T08:43:31.489Z,15.5136
2023-05-14T08:44:32.352Z,15.4795
2023-05-14T08:45:33.918Z,15.7037
2023-05-14T08:46:34.840Z,15.9419
2023-05-14T08:47:35.771Z,15.9856
2023-05-14T08:48:36.658Z,16.0938
2023-05-14T08:49:37.571Z,15.9936
2023-05-14T08:53:43.801Z,16.0278
2023-05-14T08:54:44.727Z,16.3987
2023-05-14T08:55:45.596Z,16.5539
2023-05-14T08:56:47.192Z,16.7651
2023-05-14T08:57:48.412Z,16.7669
2023-05-14T08:58:50.408Z,16.4499
2023-05-14T08:59:51.263Z,16.5203
2023-05-14T09:00:52.157Z,16.9937
2023-05-14T09:02:05.048Z,17.4525
2023-05-14T09:02:55.391Z,17.4552
2023-05-14T09:03:57.010Z,17.4653
2023-05-14T09:04:57.882Z,17.5008
2023-05-14T09:06:00.196Z,18.1434
2023-05-14T09:07:01.976Z,18.0741
2023-05-14T09:08:03.438Z,18.3188
2023-05-14T09:10:04.986Z,17.5401
2023-05-14T09:11:05.849Z,17.5204
2023-05-14T09:12:07.217Z,17.5109
2023-05-14T09:13:08.404Z,17.4456
2023-05-14T09:14:09.192Z,17.8498
2023-05-14T09:15:10.788Z,17.4921
2023-05-14T09:16:12.429Z,17.7137
2023-05-14T09:17:13.290Z,17.3325
2023-05-14T09:18:14.149Z,17.5411
2023-05-14T09:19:15.137Z,17.6666
2023-05-14T09:20:16.029Z,17.4383
2023-05-14T09:21:16.872Z,17.1970
2023-05-14T09:22:17.683Z,16.8257
2023-05-14T09:23:19.120Z,16.4078
2023-05-14T09:24:19.987Z,16.3006
2023-05-14T09:25:21.445Z,15.9047
2023-05-14T09:26:22.334Z,16.1854
2023-05-14T09:27:23.774Z,16.1103
2023-05-14T09:28:25.319Z,15.8587
2023-05-14T09:29:26.173Z,15.9322
2023-05-14T09:30:27.343Z,15.9396
2023-05-14T09:31:28.312Z,15.6022
2023-05-14T09:32:29.233Z,15.3558
2023-05-14T09:33:30.735Z,15.2678
2023-05-14T09:34:31.628Z,15.2622
2023-05-14T09:35:32.672Z,15.1909
2023-05-14T09:36:34.182Z,15.3169
2023-05-14T09:37:35.366Z,15.4701
2023-05-14T09:38:36.251Z,15.7411
2023-05-14T09:39:37.173Z,15.6399
2023-05-14T09:40:38.059Z,15.4852
2023-05-14T09:41:38.946Z,15.8913
2023-05-14T09:43:41.349Z,16.3391
2023-05-14T09:44:42.224Z,16.4307
2023-05-14T09:46:44.969Z,16.7638
2023-05-14T09:47:47.177Z,16.7610
2023-05-14T09:48:48.241Z,16.7675
2023-05-14T09:49:49.731Z,17.0362
2023-05-14T09:50:50.686Z,17.0356
2023-05-14T09:51:52.513Z,17.4447
2023-05-14T09:52:54.080Z,17.3683
2023-05-14T09:53:54.960Z,17.0696
2023-05-14T09:54:55.838Z,17.4114
2023-05-14T09:55:56.683Z,17.4365
2023-05-14T09:56:57.539Z,17.2379
2023-05-14T10:01:01.158Z,16.0948
2023-05-14T10:02:02.302Z,15.5413
2023-05-14T10:03:03.208Z,15.7881
2023-05-14T10:04:04.116Z,15.7926
2023-05-14T10:05:05.041Z,15.9871
2023-05-14T10:06:05.889Z,15.9723
2023-05-14T10:08:07.475Z,15.5674
2023-05-14T10:09:08.376Z,15.6942
2023-05-14T10:11:10.244Z,15.6593
2023-05-14T10:12:11.113Z,15.5665
2023-05-14T10:13:33.892Z,15.7118
2023-05-14T10:14:16.475Z,15.8576
2023-05-14T10:15:17.394Z,15.9715
2023-05-14T10:16:18.342Z,15.8726
2023-05-14T10:17:19.886Z,16.0035
2023-05-14T10:18:21.409Z,16.2422
2023-05-14T10:19:23.078Z,16.2773
2023-05-14T10:20:24.246Z,16.3415
2023-05-14T10:21:25.376Z,16.2325
2023-05-14T10:22:26.780Z,16.4401
2023-05-14T10:23:27.986Z,16.3820
2023-05-14T10:24:30.996Z,16.0201
2023-05-14T10:25:31.880Z,16.2257
2023-05-14T10:27:34.092Z,16.5754
2023-05-14T10:28:34.951Z,16.6508
2023-05-14T10:29:36.447Z,16.5147
2023-05-14T10:30:37.335Z,16.3298
2023-05-14T10:31:38.255Z,16.0515
2023-05-14T10:32:39.206Z,15.8821
2023-05-14T10:33:40.114Z,15.9879
2023-05-14T10:34:41.007Z,15.9509
2023-05-14T10:35:42.556Z,15.6659
2023-05-14T10:36:43.986Z,15.4645
2023-05-14T10:37:44.962Z,15.6216
2023-05-14T10:38:47.248Z,15.7993
2023-05-14T10:39:48.328Z,15.9857
2023-05-14T10:41:14.275Z,15.6724
2023-05-14T10:41:50.080Z,15.7360
2023-05-14T10:42:50.963Z,15.8386
2023-05-14T10:43:51.854Z,15.7515
2023-05-14T10:45:54.931Z,16.0046
2023-05-14T10:46:56.659Z,15.9485
2023-05-14T10:47:57.459Z,15.8055
2023-05-14T10:48:58.713Z,15.6605
2023-05-14T10:50:00.214Z,15.6616
2023-05-14T10:51:01.157Z,15.7212
2023-05-14T10:52:02.287Z,16.1018
2023-05-14T10:53:03.140Z,16.0959
2023-05-14T10:54:04.070Z,16.3083
2023-05-14T10:55:04.925Z,16.6176
2023-05-14T10:56:06.554Z,16.7267
2023-05-14T10:57:08.052Z,16.5930
2023-05-14T10:59:08.853Z,16.3055
2023-05-14T11:00:11.019Z,16.2317
2023-05-14T11:01:11.909Z,16.3600
2023-05-14T11:03:14.905Z,16.2044
2023-05-14T11:04:16.097Z,16.1632
2023-05-14T11:05:33.375Z,16.6166
2023-05-14T11:06:17.162Z,16.9669
2023-05-14T11:07:18.026Z,17.1871
2023-05-14T11:08:22.378Z,17.3329
2023-05-14T11:11:22.140Z,19.2672
2023-05-14T11:12:23.071Z,20.0027
2023-05-14T11:13:24.706Z,20.3822
2023-05-14T11:14:25.781Z,20.6025
2023-05-14T11:15:27.722Z,20.8787
2023-05-14T11:16:28.822Z,20.7835
2023-05-14T11:17:29.883Z,20.8328
2023-05-14T11:18:30.795Z,20.8172
2023-05-14T11:19:32.435Z,20.4594
2023-05-14T11:20:33.588Z,19.9574
2023-05-14T11:21:35.223Z,19.0571
2023-05-14T11:22:36.532Z,18.2809
2023-05-14T11:23:37.581Z,17.2775
2023-05-14T11:24:38.460Z,17.1920
2023-05-14T11:26:41.675Z,16.5586
2023-05-14T11:27:42.538Z,16.5114
2023-05-14T11:28:43.450Z,16.3907
2023-05-14T11:29:44.354Z,16.1961
2023-05-14T11:30:45.645Z,16.0105
2023-05-14T11:31:46.539Z,15.6832
2023-05-14T11:32:48.041Z,15.7860
2023-05-14T11:37:53.946Z,15.3745
2023-05-14T11:38:55.022Z,15.4044
2023-05-14T11:42:10.542Z,15.8699
2023-05-14T11:44:01.426Z,15.9976
2023-05-14T11:45:03.152Z,16.1481
2023-05-14T11:46:04.124Z,16.4397
2023-05-14T11:47:05.812Z,16.3753
2023-05-14T11:48:06.815Z,16.5221
2023-05-14T11:49:07.741Z,16.5502
2023-05-14T11:50:19.997Z,16.4965
2023-05-14T11:54:16.661Z,16.6074
2023-05-14T11:55:18.202Z,16.4974
2023-05-14T11:56:19.602Z,16.5699
2023-05-14T11:57:20.503Z,16.5882
2023-05-14T11:58:21.485Z,16.8739
2023-05-14T11:59:24.315Z,16.8252
2023-05-14T12:00:23.759Z,16.8647
2023-05-14T12:01:24.839Z,16.9645
2023-05-14T12:02:26.489Z,17.2508
2023-05-14T12:03:28.103Z,17.4881
2023-05-14T12:05:30.508Z,17.5344
2023-05-14T12:06:32.099Z,17.4276
2023-05-14T12:07:33.599Z,17.2494
2023-05-14T12:08:34.592Z,16.9720
2023-05-14T12:09:35.863Z,16.5587
2023-05-14T12:10:36.920Z,15.9714
2023-05-14T12:11:38.233Z,15.2551
2023-05-14T12:12:39.546Z,14.8253
2023-05-14T12:13:40.784Z,14.0040
2023-05-14T12:14:41.851Z,13.7402
2023-05-14T12:15:42.228Z,13.5179
2023-05-14T12:16:43.256Z,13.2854
2023-05-14T12:17:44.911Z,13.0617
2023-05-14T12:18:45.875Z,12.9685
2023-05-14T12:19:47.598Z,12.8017
2023-05-14T12:20:48.539Z,12.7365
2023-05-14T12:21:49.501Z,12.6378
2023-05-14T12:22:50.554Z,12.6445
2023-05-14T12:23:51.491Z,12.6020
2023-05-14T12:24:52.474Z,12.4914
2023-05-14T12:25:53.422Z,12.4853
2023-05-14T12:26:55.259Z,12.5149
2023-05-14T12:27:56.254Z,12.6482
2023-05-14T12:28:57.210Z,12.5737
2023-05-14T12:30:06.289Z,12.5662
2023-05-14T12:31:00.378Z,12.6679
2023-05-14T12:32:01.325Z,12.6787
2023-05-14T12:33:02.344Z,12.6743
2023-05-14T12:34:03.987Z,12.7141
2023-05-14T12:35:05.022Z,12.7058
2023-05-14T12:36:20.656Z,12.7432
2023-05-14T12:37:07.636Z,12.6680
2023-05-14T12:38:08.572Z,12.7571
2023-05-14T12:39:09.561Z,12.7979
2023-05-14T12:40:10.507Z,12.8606
2023-05-14T12:41:11.551Z,12.9561
2023-05-14T12:42:12.996Z,12.9002
2023-05-14T12:43:13.985Z,12.9577
2023-05-14T12:44:14.984Z,12.9451
2023-05-14T12:45:15.922Z,13.0838
2023-05-14T12:46:16.905Z,12.9962
2023-05-14T12:47:18.045Z,13.1127
2023-05-14T12:48:19.089Z,13.2362
2023-05-14T12:49:20.077Z,13.3272
2023-05-14T12:50:21.173Z,13.4527
2023-05-14T12:51:22.131Z,13.5785
2023-05-14T12:52:36.903Z,13.6700
2023-05-14T12:54:25.095Z,13.7115
2023-05-14T12:57:27.794Z,13.8389
2023-05-14T12:59:29.614Z,13.9077
2023-05-14T13:00:30.568Z,13.9811
2023-05-14T13:01:31.628Z,14.0567
2023-05-14T13:02:32.705Z,14.1686
2023-05-14T13:03:33.674Z,14.2517
2023-05-14T13:04:35.020Z,14.2124
2023-05-14T13:05:35.978Z,14.1368
2023-05-14T13:06:36.990Z,14.1727
2023-05-14T13:07:38.003Z,14.4199
2023-05-14T13:08:39.689Z,14.5954
2023-05-14T13:09:39.002Z,14.5925
2023-05-14T13:10:40.059Z,14.7232
2023-05-14T13:11:41.035Z,14.9945
2023-05-14T13:12:41.975Z,15.1006
2023-05-14T13:13:42.946Z,15.0429
2023-05-14T13:14:43.877Z,14.9537
2023-05-14T13:16:45.630Z,15.0800
2023-05-14T13:17:46.659Z,15.1876
2023-05-14T13:18:47.634Z,15.0075
2023-05-14T13:19:48.627Z,14.8278
2023-05-14T13:21:50.429Z,14.7396
2023-05-14T13:22:51.378Z,14.9695
2023-05-14T13:23:52.368Z,14.9168
2023-05-14T13:24:53.368Z,14.8292
2023-05-14T13:25:54.348Z,15.0740
2023-05-14T13:26:55.287Z,15.3079
2023-05-14T13:27:56.259Z,15.1127
2023-05-14T13:28:57.228Z,15.3286
2023-05-14T13:29:58.864Z,15.3784
2023-05-14T13:31:00.202Z,15.5805
2023-05-14T13:32:01.158Z,15.8218
2023-05-14T13:33:02.183Z,15.8487
2023-05-14T13:35:04.650Z,16.3873
2023-05-14T13:36:06.274Z,16.6168
2023-05-14T13:37:07.270Z,16.7105
2023-05-14T13:39:09.034Z,16.7959
2023-05-14T13:40:09.991Z,16.8400
2023-05-14T13:42:12.735Z,16.9468
2023-05-14T13:43:14.358Z,16.6480
2023-05-14T13:44:15.296Z,16.6828
2023-05-14T13:45:16.913Z,16.8340
2023-05-14T13:46:17.871Z,17.0874
2023-05-14T13:47:18.835Z,17.1228
2023-05-14T13:48:19.765Z,17.3462
2023-05-14T13:49:20.729Z,17.1069
2023-05-14T13:50:21.663Z,17.3702
2023-05-14T13:51:22.624Z,17.4089
2023-05-14T13:52:23.552Z,17.3020
2023-05-14T13:54:26.080Z,17.5385
2023-05-14T13:55:27.719Z,17.3138
2023-05-14T13:58:31.354Z,18.1317
2023-05-14T13:59:32.268Z,18.2185
2023-05-14T14:00:33.164Z,18.5987
2023-05-14T14:01:34.710Z,18.9100
2023-05-14T14:02:35.937Z,19.8726
2023-05-14T14:03:37.504Z,20.9649
2023-05-14T14:04:38.401Z,21.4925
2023-05-14T14:06:40.360Z,22.1195
2023-05-14T14:07:41.287Z,22.2585
2023-05-14T14:08:42.748Z,22.6287
2023-05-14T14:09:43.665Z,22.0840
2023-05-14T14:10:44.548Z,21.5281